Time;durP1;ratioP1;P1;durP2;ratioP2;P2;SDS_P1;SDS_P2;PMS_P1;PMS_P2;Temp;Humidity;BMP_temperature;BMP_pressure;BME280_temperature;BME280_humidity;BME280_pressure;Samples;Min_cycle;Max_cycle;Signal;HPM_P1;HPM_P2
2022/06/01 00:02:05;;;;;;;4.78;3.70;;;11.50;99.90;;;;;;4983065;28;38750;-74
2022/06/01 00:04:31;;;;;;;3.90;3.47;;;11.40;99.90;;;;;;4991769;28;38916;-74
2022/06/01 00:06:57;;;;;;;4.50;3.40;;;11.50;99.90;;;;;;4985536;28;39157;-74
2022/06/01 00:09:23;;;;;;;3.70;3.35;;;11.50;99.90;;;;;;4987021;28;39379;-74
2022/06/01 00:11:49;;;;;;;4.32;3.92;;;11.50;99.90;;;;;;5000872;28;38945;-74
2022/06/01 00:14:15;;;;;;;6.20;3.35;;;11.40;99.90;;;;;;4984244;28;38106;-74
2022/06/01 00:16:42;;;;;;;4.38;3.47;;;11.30;99.90;;;;;;4992683;28;37123;-74
2022/06/01 00:19:10;;;;;;;3.85;3.40;;;11.40;99.90;;;;;;4977261;28;39230;-74
2022/06/01 00:22:11;;;;;;;3.95;3.53;;;11.30;99.90;;;;;;4979886;28;38706;-75
2022/06/01 00:24:22;;;;;;;4.28;3.45;;;11.20;99.90;;;;;;4978110;28;39151;-75
2022/06/01 00:26:50;;;;;;;6.18;4.25;;;11.10;99.90;;;;;;4983278;28;37155;-74
2022/06/01 00:29:17;;;;;;;5.53;5.03;;;11.10;99.90;;;;;;4985953;28;37854;-75
2022/06/01 00:31:43;;;;;;;8.05;5.85;;;11.00;99.90;;;;;;4984314;28;39632;-75
2022/06/01 00:34:09;;;;;;;8.45;6.72;;;10.90;99.90;;;;;;4984940;28;38427;-74
2022/06/01 00:36:35;;;;;;;7.22;6.53;;;11.00;99.90;;;;;;4984332;28;37939;-74
2022/06/01 00:39:01;;;;;;;10.10;6.30;;;11.00;99.90;;;;;;4987337;28;38375;-76
2022/06/01 00:41:29;;;;;;;8.63;5.47;;;11.00;99.90;;;;;;4982710;28;36483;-75
2022/06/01 00:43:55;;;;;;;7.72;5.20;;;11.00;99.90;;;;;;4977105;28;37311;-75
2022/06/01 00:46:21;;;;;;;7.63;5.68;;;11.00;99.90;;;;;;4986775;28;36048;-75
2022/06/01 00:48:54;;;;;;;6.88;5.18;;;11.00;99.90;;;;;;4985832;28;38747;-75
2022/06/01 00:51:24;;;;;;;7.38;4.85;;;11.00;99.90;;;;;;4986509;28;39144;-75
2022/06/01 00:53:53;;;;;;;5.78;5.20;;;11.00;99.90;;;;;;4985653;28;38527;-75
2022/06/01 00:56:27;;;;;;;11.05;6.63;;;11.10;99.90;;;;;;4983821;28;37783;-75
2022/06/01 00:58:57;;;;;;;6.05;5.45;;;11.10;99.90;;;;;;4983200;28;38883;-75
2022/06/01 01:01:24;;;;;;;9.50;8.38;;;11.10;99.90;;;;;;4981934;28;39878;-75
2022/06/01 01:03:56;;;;;;;9.45;7.72;;;11.00;99.90;;;;;;4981838;28;37266;-75
2022/06/01 01:06:24;;;;;;;7.38;6.47;;;11.00;99.90;;;;;;4987657;28;36620;-75
2022/06/01 01:08:51;;;;;;;13.25;7.97;;;11.00;99.90;;;;;;4983298;28;39722;-75
2022/06/01 01:11:23;;;;;;;9.32;8.25;;;11.00;99.90;;;;;;4981383;28;39137;-75
2022/06/01 01:13:50;;;;;;;11.27;8.27;;;11.00;99.90;;;;;;4986057;28;38056;-75
2022/06/01 01:16:17;;;;;;;10.73;9.23;;;11.00;99.90;;;;;;4984441;28;37484;-75
2022/06/01 01:18:45;;;;;;;12.07;10.80;;;11.00;99.90;;;;;;4978874;28;39641;-75
2022/06/01 01:21:36;;;;;;;13.40;11.88;;;11.00;99.90;;;;;;4999571;28;38227;-75
2022/06/01 01:24:13;;;;;;;11.52;9.82;;;11.00;99.90;;;;;;4981941;28;40292;-75
2022/06/01 01:26:43;;;;;;;14.63;11.75;;;10.90;99.90;;;;;;4976582;28;38055;-76
2022/06/01 01:29:11;;;;;;;12.23;11.00;;;10.90;99.90;;;;;;4973245;28;39807;-75
2022/06/01 01:31:39;;;;;;;11.18;9.30;;;10.90;99.90;;;;;;4992059;28;38038;-75
2022/06/01 01:34:06;;;;;;;15.48;12.73;;;10.80;99.90;;;;;;4983116;28;36866;-75
2022/06/01 01:36:54;;;;;;;12.77;11.55;;;10.80;99.90;;;;;;4981265;28;36675;-75
2022/06/01 01:39:21;;;;;;;11.98;10.77;;;10.80;99.90;;;;;;4996902;28;40792;-75
2022/06/01 01:41:50;;;;;;;11.75;10.45;;;10.80;99.90;;;;;;4983564;28;38728;-75
2022/06/01 01:44:24;;;;;;;12.93;11.60;;;10.80;99.90;;;;;;4992826;28;37718;-75
2022/06/01 01:46:50;;;;;;;13.25;11.85;;;10.80;99.90;;;;;;4993274;28;37376;-75
2022/06/01 01:49:22;;;;;;;12.40;11.10;;;10.70;99.90;;;;;;4979386;28;40625;-75
2022/06/01 01:51:52;;;;;;;11.95;10.88;;;10.70;99.90;;;;;;4984318;28;20050;-75
2022/06/01 01:54:39;;;;;;;13.65;12.23;;;10.60;99.90;;;;;;5004757;28;37747;-74
2022/06/01 01:57:21;;;;;;;14.98;13.50;;;10.60;99.90;;;;;;4982826;28;38184;-75
2022/06/01 02:00:04;;;;;;;16.15;14.20;;;10.50;99.90;;;;;;5003020;28;39961;-75
2022/06/01 02:02:49;;;;;;;14.63;13.13;;;10.50;99.90;;;;;;4987692;28;48857;-74
2022/06/01 02:06:08;;;;;;;16.27;14.57;;;10.50;99.90;;;;;;4987827;28;40220;-75
2022/06/01 02:08:46;;;;;;;15.65;14.02;;;10.50;99.90;;;;;;4988881;28;48392;-74
2022/06/01 02:14:52;;;;;;;13.43;12.05;;;10.40;99.90;;;;;;4981367;28;49678;-75
2022/06/01 02:17:31;;;;;;;15.48;13.82;;;10.40;99.90;;;;;;4999957;28;40492;-74
2022/06/01 02:20:05;;;;;;;14.27;12.63;;;10.40;99.90;;;;;;4980196;28;37805;-74
2022/06/01 02:22:34;;;;;;;16.25;12.75;;;10.50;99.90;;;;;;4985041;28;46960;-74
2022/06/01 02:25:01;;;;;;;12.32;11.13;;;10.50;99.90;;;;;;5005515;28;41052;-74
2022/06/01 02:27:28;;;;;;;13.63;11.63;;;10.50;99.90;;;;;;4986850;28;38345;-75
2022/06/01 02:30:07;;;;;;;14.63;13.05;;;10.50;99.90;;;;;;5004742;28;39443;-74
2022/06/01 02:32:35;;;;;;;11.77;10.27;;;10.60;99.90;;;;;;4980482;28;47056;-74
2022/06/01 02:35:05;;;;;;;11.60;9.50;;;10.60;99.90;;;;;;4989295;28;40661;-75
2022/06/01 02:37:34;;;;;;;19.52;11.68;;;10.70;99.90;;;;;;4987118;28;47332;-75
2022/06/01 02:40:06;;;;;;;12.93;10.95;;;10.70;99.90;;;;;;4989788;28;37051;-76
2022/06/01 02:42:32;;;;;;;12.15;10.95;;;10.70;99.90;;;;;;4998269;28;47171;-74
2022/06/01 02:45:00;;;;;;;12.18;10.05;;;10.60;99.90;;;;;;4986647;28;39246;-74
2022/06/01 02:47:30;;;;;;;10.80;9.57;;;10.60;99.90;;;;;;4979567;28;38670;-75
2022/06/01 02:49:57;;;;;;;9.27;8.15;;;10.60;99.90;;;;;;4988599;28;37398;-75
2022/06/01 02:52:24;;;;;;;10.40;9.40;;;10.60;99.90;;;;;;4977059;28;39469;-75
2022/06/01 02:54:51;;;;;;;10.40;9.35;;;10.50;99.90;;;;;;4988857;28;39681;-75
2022/06/01 02:57:18;;;;;;;10.98;9.88;;;10.50;99.90;;;;;;4988101;28;38840;-75
2022/06/01 02:59:45;;;;;;;8.82;7.93;;;10.50;99.90;;;;;;4991558;28;37635;-74
2022/06/01 03:02:11;;;;;;;12.82;10.55;;;10.50;99.90;;;;;;4982051;28;39145;-74
2022/06/01 03:04:40;;;;;;;11.90;8.98;;;10.50;99.90;;;;;;5001690;28;37743;-74
2022/06/01 03:07:06;;;;;;;10.25;9.25;;;10.50;99.90;;;;;;5004368;28;40443;-74
2022/06/01 03:09:33;;;;;;;14.20;10.63;;;10.50;99.90;;;;;;4984179;28;38724;-74
2022/06/01 03:11:59;;;;;;;13.30;10.05;;;10.50;99.90;;;;;;5001304;28;40736;-74
2022/06/01 03:14:27;;;;;;;10.05;9.02;;;10.50;99.90;;;;;;4999348;28;40322;-74
2022/06/01 03:16:53;;;;;;;11.70;10.10;;;10.40;99.90;;;;;;4997434;28;39372;-75
2022/06/01 03:19:19;;;;;;;9.02;8.20;;;10.40;99.90;;;;;;4988227;28;38209;-74
2022/06/01 03:21:46;;;;;;;9.80;8.18;;;10.40;99.90;;;;;;4987726;28;38953;-75
2022/06/01 03:24:12;;;;;;;10.67;9.07;;;10.30;99.90;;;;;;4987007;28;39463;-75
2022/06/01 03:26:38;;;;;;;12.30;10.32;;;10.30;99.90;;;;;;4987214;28;38854;-75
2022/06/01 03:29:04;;;;;;;13.10;9.52;;;10.30;99.90;;;;;;4972704;28;38370;-76
2022/06/01 03:31:31;;;;;;;9.07;7.78;;;10.20;99.90;;;;;;4985256;28;39406;-75
2022/06/01 03:33:57;;;;;;;15.95;10.18;;;10.30;99.90;;;;;;4998723;28;40484;-75
2022/06/01 03:36:24;;;;;;;12.10;9.68;;;10.30;99.90;;;;;;4984724;28;39367;-75
2022/06/01 03:38:50;;;;;;;11.43;8.43;;;10.30;99.90;;;;;;4987175;28;37880;-75
2022/06/01 03:41:16;;;;;;;9.98;9.02;;;10.30;99.90;;;;;;4997034;28;40625;-75
2022/06/01 03:46:29;;;;;;;9.35;8.45;;;10.40;99.90;;;;;;4976797;28;49387;-75
2022/06/01 03:48:55;;;;;;;12.98;11.18;;;10.40;99.90;;;;;;4982260;28;37980;-75
2022/06/01 03:51:21;;;;;;;10.23;8.68;;;10.40;99.90;;;;;;4980794;28;39755;-74
2022/06/01 03:53:47;;;;;;;12.65;10.43;;;10.50;99.90;;;;;;4984682;28;39924;-74
2022/06/01 03:56:13;;;;;;;9.13;8.23;;;10.50;99.90;;;;;;4984204;28;39034;-75
2022/06/01 03:58:40;;;;;;;9.75;8.40;;;10.50;99.90;;;;;;4987019;28;37363;-75
2022/06/01 04:01:06;;;;;;;12.27;9.98;;;10.40;99.90;;;;;;4978465;28;39547;-75
2022/06/01 04:03:33;;;;;;;10.02;8.38;;;10.50;99.90;;;;;;4986018;28;39863;-75
2022/06/01 04:05:59;;;;;;;9.65;8.65;;;10.50;99.90;;;;;;4998392;28;39499;-75
2022/06/01 04:08:25;;;;;;;9.30;8.40;;;10.50;99.90;;;;;;4981723;28;38060;-75
2022/06/01 04:10:51;;;;;;;11.65;9.10;;;10.50;99.90;;;;;;4993655;28;39786;-75
2022/06/01 04:13:17;;;;;;;19.10;13.18;;;10.60;99.90;;;;;;4977956;28;41706;-75
2022/06/01 04:15:44;;;;;;;10.80;8.52;;;10.60;99.90;;;;;;4976869;28;38996;-75
2022/06/01 04:18:10;;;;;;;9.23;8.32;;;10.60;99.90;;;;;;4984934;28;38258;-76
2022/06/01 04:20:36;;;;;;;10.98;7.70;;;10.70;99.90;;;;;;4980232;28;38500;-75
2022/06/01 04:23:03;;;;;;;10.60;8.38;;;10.70;99.90;;;;;;4982874;28;39505;-75
2022/06/01 04:25:30;;;;;;;8.77;7.97;;;10.80;99.90;;;;;;4982524;28;39640;-75
2022/06/01 04:27:57;;;;;;;8.40;7.55;;;10.90;99.90;;;;;;4997940;28;37698;-74
2022/06/01 04:30:23;;;;;;;10.38;7.70;;;11.00;99.90;;;;;;4981070;28;38998;-76
2022/06/01 04:32:51;;;;;;;12.07;7.93;;;11.00;99.90;;;;;;4979645;28;40434;-75
2022/06/01 04:35:20;;;;;;;6.78;6.07;;;11.10;99.90;;;;;;4984721;28;39424;-75
2022/06/01 04:38:12;;;;;;;8.55;6.40;;;11.10;99.90;;;;;;5094665;27;20885;-74
2022/06/01 04:40:43;;;;;;;6.38;5.57;;;11.10;99.90;;;;;;5096267;27;48459;-74
2022/06/01 04:43:21;;;;;;;7.53;6.38;;;11.10;99.90;;;;;;5095694;27;38169;-74
2022/06/01 04:45:50;;;;;;;6.28;5.25;;;10.90;99.90;;;;;;5122751;27;39462;-73
2022/06/01 04:48:17;;;;;;;6.60;5.47;;;10.90;99.90;;;;;;5080095;27;39275;-74
2022/06/01 04:50:43;;;;;;;7.68;6.00;;;11.00;99.90;;;;;;5086725;27;37576;-74
2022/06/01 04:53:12;;;;;;;7.75;5.90;;;10.90;99.90;;;;;;5118069;27;37883;-73
2022/06/01 04:55:38;;;;;;;6.47;5.05;;;11.00;99.90;;;;;;5068449;28;38864;-73
2022/06/01 04:58:04;;;;;;;6.57;5.78;;;11.00;99.90;;;;;;5074218;28;38927;-73
2022/06/01 05:00:31;;;;;;;7.63;5.50;;;10.90;99.90;;;;;;5069022;28;37528;-74
2022/06/01 05:02:57;;;;;;;7.45;5.32;;;11.00;99.90;;;;;;5074552;28;37310;-75
2022/06/01 05:05:23;;;;;;;7.68;5.10;;;11.00;99.90;;;;;;5069208;28;41007;-74
2022/06/01 05:07:49;;;;;;;5.88;5.07;;;11.00;99.90;;;;;;5069750;28;38486;-75
2022/06/01 05:10:15;;;;;;;7.85;5.65;;;11.00;99.90;;;;;;5099082;27;38146;-74
2022/06/01 05:12:41;;;;;;;9.73;5.28;;;11.10;99.90;;;;;;5071412;28;37812;-75
2022/06/01 05:15:09;;;;;;;6.70;4.68;;;11.10;99.90;;;;;;5081525;27;38718;-75
2022/06/01 05:17:36;;;;;;;6.47;5.50;;;11.20;99.90;;;;;;5076396;28;38138;-75
2022/06/01 05:20:03;;;;;;;5.05;4.65;;;11.20;99.90;;;;;;5075111;28;38429;-75
2022/06/01 05:22:29;;;;;;;7.68;5.72;;;11.20;99.90;;;;;;5081209;27;37481;-75
2022/06/01 05:24:55;;;;;;;7.38;5.90;;;11.30;99.90;;;;;;5097174;27;39850;-75
2022/06/01 05:27:22;;;;;;;5.88;5.38;;;11.30;99.90;;;;;;5092422;27;39267;-75
2022/06/01 05:29:48;;;;;;;5.68;5.07;;;11.30;99.90;;;;;;5105141;27;37135;-76
2022/06/01 05:32:14;;;;;;;9.73;5.93;;;11.30;99.90;;;;;;5085013;27;39089;-75
2022/06/01 05:34:40;;;;;;;6.47;5.75;;;11.30;99.90;;;;;;5096153;27;41002;-75
2022/06/01 05:37:07;;;;;;;7.22;6.55;;;11.30;99.90;;;;;;5117341;27;38532;-75
2022/06/01 05:39:33;;;;;;;6.57;5.93;;;11.50;99.90;;;;;;5085811;28;39201;-75
2022/06/01 05:41:59;;;;;;;8.20;6.40;;;11.60;99.90;;;;;;5076345;28;38163;-75
2022/06/01 05:44:25;;;;;;;8.43;6.50;;;11.60;99.90;;;;;;5080975;27;40271;-75
2022/06/01 05:46:55;;;;;;;9.02;8.07;;;12.00;99.90;;;;;;5088531;28;38771;-73
2022/06/01 05:49:22;;;;;;;7.53;6.80;;;12.60;99.90;;;;;;5067212;28;38281;-75
2022/06/01 05:51:48;;;;;;;7.10;6.40;;;13.00;99.90;;;;;;5070666;27;38094;-75
2022/06/01 05:54:14;;;;;;;10.63;7.50;;;13.20;99.90;;;;;;5065290;28;39439;-75
2022/06/01 05:56:40;;;;;;;7.35;6.60;;;13.50;99.90;;;;;;5068959;28;38300;-75
2022/06/01 05:59:06;;;;;;;7.60;6.45;;;13.70;99.90;;;;;;5068709;27;37690;-75
2022/06/01 06:01:32;;;;;;;9.30;6.47;;;13.90;99.90;;;;;;5070119;27;37397;-75
2022/06/01 06:03:58;;;;;;;7.57;6.32;;;14.20;99.90;;;;;;5074559;28;39701;-75
2022/06/01 06:06:25;;;;;;;8.88;6.47;;;14.50;99.90;;;;;;5069625;27;38583;-75
2022/06/01 06:08:53;;;;;;;6.45;5.78;;;14.70;99.90;;;;;;5086060;27;38067;-76
2022/06/01 06:11:20;;;;;;;7.75;5.28;;;14.70;99.90;;;;;;5085993;27;37939;-75
2022/06/01 06:13:46;;;;;;;6.78;4.95;;;14.60;99.90;;;;;;5086711;27;40728;-75
2022/06/01 06:16:14;;;;;;;7.55;4.88;;;14.70;99.90;;;;;;5084563;27;38897;-75
2022/06/01 06:18:40;;;;;;;8.05;5.00;;;14.60;99.90;;;;;;5085201;27;37721;-75
2022/06/01 06:21:07;;;;;;;5.38;4.22;;;14.80;99.90;;;;;;5088792;27;38233;-75
2022/06/01 06:23:34;;;;;;;4.82;4.22;;;14.90;99.90;;;;;;5088958;27;38739;-75
2022/06/01 06:26:01;;;;;;;7.32;4.43;;;15.30;99.90;;;;;;5087179;27;41092;-76
2022/06/01 06:28:28;;;;;;;5.88;3.70;;;15.50;99.90;;;;;;5086614;27;47314;-76
2022/06/01 06:30:54;;;;;;;5.97;3.63;;;15.50;99.90;;;;;;5083658;27;38607;-76
2022/06/01 06:33:20;;;;;;;3.95;2.88;;;15.80;99.90;;;;;;5085434;27;39572;-76
2022/06/01 06:35:54;;;;;;;4.82;3.60;;;15.80;99.90;;;;;;5087399;27;38562;-75
2022/06/01 06:38:20;;;;;;;4.72;3.22;;;15.90;99.90;;;;;;5086790;27;36247;-76
2022/06/01 06:40:46;;;;;;;3.90;2.70;;;15.80;99.90;;;;;;5086074;27;38739;-76
2022/06/01 06:43:12;;;;;;;6.65;2.70;;;15.90;99.90;;;;;;5086396;27;39445;-76
2022/06/01 06:45:38;;;;;;;3.95;2.72;;;16.10;99.90;;;;;;5081388;27;39245;-76
2022/06/01 06:48:05;;;;;;;5.63;2.90;;;16.10;99.90;;;;;;5086858;27;37700;-75
2022/06/01 06:50:31;;;;;;;5.57;2.30;;;16.00;99.90;;;;;;5121366;27;38726;-75
2022/06/01 06:52:57;;;;;;;3.60;2.67;;;16.20;99.90;;;;;;5086184;27;39937;-76
2022/06/01 06:55:23;;;;;;;2.45;2.25;;;16.10;99.90;;;;;;5086253;27;37073;-75
2022/06/01 06:57:49;;;;;;;2.72;2.00;;;16.10;99.90;;;;;;5086562;27;37715;-76
2022/06/01 07:00:16;;;;;;;3.25;1.92;;;15.90;99.90;;;;;;5083926;27;38484;-75
2022/06/01 07:02:43;;;;;;;3.33;2.10;;;15.90;99.90;;;;;;5082944;27;39377;-76
2022/06/01 07:05:09;;;;;;;3.15;2.30;;;16.10;99.90;;;;;;5086847;27;37939;-75
2022/06/01 07:07:36;;;;;;;3.35;2.40;;;16.20;99.90;;;;;;5086585;27;37725;-75
2022/06/01 07:10:02;;;;;;;3.13;2.08;;;16.30;99.90;;;;;;5086190;27;37781;-76
2022/06/01 07:12:29;;;;;;;4.47;1.88;;;16.40;99.90;;;;;;5086143;27;37611;-75
2022/06/01 07:14:55;;;;;;;2.42;1.80;;;16.50;99.90;;;;;;5087022;28;40037;-75
2022/06/01 07:17:21;;;;;;;4.93;2.28;;;16.60;99.90;;;;;;5087371;27;37278;-75
2022/06/01 07:19:47;;;;;;;2.88;2.00;;;17.00;99.90;;;;;;5090944;27;37984;-76
2022/06/01 07:22:13;;;;;;;4.13;2.40;;;16.90;99.90;;;;;;5086957;27;39479;-76
2022/06/01 07:24:39;;;;;;;3.22;2.17;;;16.40;99.90;;;;;;5077891;27;39384;-75
2022/06/01 07:27:06;;;;;;;2.88;2.08;;;16.20;99.90;;;;;;5085991;27;37888;-75
2022/06/01 07:29:32;;;;;;;2.55;1.55;;;16.50;99.90;;;;;;5087338;27;36837;-75
2022/06/01 07:31:58;;;;;;;2.65;1.80;;;16.60;99.90;;;;;;5087473;27;39549;-75
2022/06/01 07:34:24;;;;;;;3.95;1.92;;;17.10;99.90;;;;;;5088627;27;38409;-75
2022/06/01 07:36:50;;;;;;;5.07;1.90;;;17.40;99.90;;;;;;5087008;27;38594;-76
2022/06/01 07:44:52;;;;;;;3.05;1.38;;;17.00;99.90;;;;;;5080733;27;50226;-76
2022/06/01 07:47:19;;;;;;;3.47;1.55;;;16.40;99.90;;;;;;5092038;27;38083;-76
2022/06/01 07:49:45;;;;;;;1.85;1.30;;;16.60;99.90;;;;;;5092350;27;37085;-76
2022/06/01 07:52:13;;;;;;;2.35;1.52;;;16.90;99.90;;;;;;5066363;27;39388;-76
2022/06/01 07:54:42;;;;;;;3.17;1.23;;;17.30;99.90;;;;;;5063214;28;38514;-76
2022/06/01 07:57:09;;;;;;;1.73;1.23;;;17.50;99.90;;;;;;5064215;27;39259;-75
2022/06/01 07:59:35;;;;;;;2.33;1.38;;;17.10;99.90;;;;;;5063868;28;36862;-76
2022/06/01 08:02:05;;;;;;;2.40;1.05;;;17.30;99.90;;;;;;5065104;28;37430;-77
2022/06/01 08:04:32;;;;;;;1.77;1.30;;;17.60;99.90;;;;;;5065173;28;39290;-76
2022/06/01 08:06:58;;;;;;;1.38;0.95;;;17.80;99.90;;;;;;5064290;28;38357;-75
2022/06/01 08:09:24;;;;;;;2.38;1.02;;;17.60;99.90;;;;;;5065764;28;38743;-75
2022/06/01 08:14:35;;;;;;;1.30;0.90;;;17.70;99.90;;;;;;5084920;27;49140;-76
2022/06/01 08:17:02;;;;;;;1.90;1.10;;;17.70;99.90;;;;;;5086259;27;40059;-76
2022/06/01 08:19:28;;;;;;;1.70;1.10;;;17.50;99.90;;;;;;5086884;27;37216;-76
2022/06/01 08:21:54;;;;;;;2.22;1.27;;;17.70;99.90;;;;;;5087214;27;38926;-75
2022/06/01 08:24:20;;;;;;;2.28;1.40;;;17.40;99.90;;;;;;5087368;27;38310;-75
2022/06/01 08:26:46;;;;;;;1.50;0.95;;;17.60;99.90;;;;;;5113593;27;39214;-75
2022/06/01 08:29:12;;;;;;;1.85;1.02;;;17.40;99.90;;;;;;5103241;27;38883;-75
2022/06/01 08:31:39;;;;;;;2.30;1.00;;;17.40;99.90;;;;;;5066519;27;40222;-75
2022/06/01 08:34:05;;;;;;;1.17;0.90;;;17.60;99.90;;;;;;5063672;27;38146;-75
2022/06/01 08:36:32;;;;;;;3.00;1.10;;;17.60;99.90;;;;;;5112102;27;36435;-75
2022/06/01 08:38:58;;;;;;;1.30;1.00;;;17.60;99.90;;;;;;5076842;28;37264;-75
2022/06/01 08:41:31;;;;;;;1.13;1.05;;;17.60;99.90;;;;;;5064374;28;40788;-75
2022/06/01 08:44:07;;;;;;;2.05;1.35;;;17.70;99.90;;;;;;5082149;27;38553;-75
2022/06/01 08:46:34;;;;;;;2.53;1.00;;;17.90;99.90;;;;;;5087008;28;46953;-76
2022/06/01 08:49:06;;;;;;;1.25;0.82;;;17.40;99.90;;;;;;5071817;27;38833;-76
2022/06/01 08:51:33;;;;;;;1.80;0.95;;;17.70;99.90;;;;;;5076822;27;48671;-76
2022/06/01 08:54:00;;;;;;;2.20;1.10;;;18.20;99.90;;;;;;5087171;27;38213;-75
2022/06/01 08:56:41;;;;;;;1.85;1.23;;;18.00;99.90;;;;;;5084455;28;36929;-76
2022/06/01 08:59:22;;;;;;;1.95;0.90;;;18.10;99.90;;;;;;5081759;27;37413;-76
2022/06/01 09:02:20;;;;;;;1.27;1.00;;;18.30;99.90;;;;;;5082493;27;39784;-76
2022/06/01 09:04:53;;;;;;;1.25;0.90;;;18.00;99.90;;;;;;5056432;28;49387;-76
2022/06/01 09:07:25;;;;;;;0.90;0.60;;;18.30;99.90;;;;;;5084499;27;38525;-76
2022/06/01 09:10:08;;;;;;;0.85;0.77;;;18.50;99.90;;;;;;5067414;28;39169;-74
2022/06/01 09:12:36;;;;;;;2.10;0.70;;;18.70;99.90;;;;;;5076174;28;47331;-74
2022/06/01 09:15:24;;;;;;;1.02;0.40;;;18.80;99.90;;;;;;5064754;28;38953;-74
2022/06/01 09:17:50;;;;;;;0.88;0.57;;;18.90;99.90;;;;;;5075648;28;39352;-73
2022/06/01 09:23:06;;;;;;;1.17;0.73;;;18.80;99.90;;;;;;5067064;28;39308;-74
2022/06/01 09:25:35;;;;;;;1.17;0.43;;;18.90;99.90;;;;;;5090500;27;47026;-74
2022/06/01 09:28:39;;;;;;;0.50;0.50;;;18.80;99.90;;;;;;5079822;28;39954;-74
2022/06/01 09:31:37;;;;;;;1.30;0.60;;;18.30;99.90;;;;;;5001661;28;47051;-74
2022/06/01 09:34:26;;;;;;;1.95;0.80;;;18.30;99.90;;;;;;5079699;27;39615;-73
2022/06/01 09:37:04;;;;;;;1.17;0.63;;;18.60;99.90;;;;;;5089075;27;39207;-73
2022/06/01 09:39:31;;;;;;;1.60;1.00;;;18.90;99.90;;;;;;5081446;27;47528;-74
2022/06/01 09:42:17;;;;;;;0.73;0.60;;;18.90;99.90;;;;;;5065532;28;37662;-74
2022/06/01 09:44:46;;;;;;;0.93;0.60;;;19.30;99.90;;;;;;5068815;27;48903;-75
2022/06/01 09:47:43;;;;;;;1.15;0.50;;;18.80;99.90;;;;;;5073790;28;38537;-75
2022/06/01 09:50:31;;;;;;;1.77;0.63;;;18.40;99.90;;;;;;5070279;27;38091;-74
2022/06/01 09:53:17;;;;;;;1.20;0.90;;;18.20;99.90;;;;;;5067535;28;37471;-74
2022/06/01 09:55:56;;;;;;;1.75;0.55;;;18.40;99.90;;;;;;5087589;27;49518;-74
2022/06/01 10:07:07;;;;;;;1.70;0.80;;;18.20;99.90;;;;;;5085511;27;40978;-74
2022/06/01 10:09:34;;;;;;;1.33;0.65;;;18.00;99.90;;;;;;5088271;27;39315;-74
2022/06/01 10:12:23;;;;;;;1.75;0.90;;;17.90;99.90;;;;;;5088659;27;38123;-74
2022/06/01 10:14:55;;;;;;;0.95;0.60;;;18.10;99.90;;;;;;5084126;27;47371;-75
2022/06/01 10:17:34;;;;;;;1.52;0.93;;;18.10;99.90;;;;;;5078577;27;39019;-74
2022/06/01 10:20:22;;;;;;;5.05;1.08;;;18.10;99.90;;;;;;5078635;27;40819;-75
2022/06/01 10:23:24;;;;;;;1.50;0.75;;;17.70;99.90;;;;;;5081030;27;49619;-75
2022/06/01 10:26:17;;;;;;;1.20;0.75;;;17.30;99.90;;;;;;5087098;27;47560;-76
2022/06/01 10:29:12;;;;;;;2.22;0.95;;;17.50;99.90;;;;;;5079688;27;46488;-76
2022/06/01 10:31:49;;;;;;;1.58;0.82;;;18.10;99.90;;;;;;5086765;28;47308;-76
2022/06/01 10:34:37;;;;;;;4.30;0.57;;;18.30;99.90;;;;;;5069028;27;37441;-75
2022/06/01 10:37:23;;;;;;;3.42;1.20;;;18.00;99.90;;;;;;5065727;28;35950;-75
2022/06/01 10:40:15;;;;;;;1.42;1.00;;;18.30;99.90;;;;;;5066136;28;37894;-75
2022/06/01 10:43:22;;;;;;;1.48;0.98;;;18.10;99.90;;;;;;5088009;27;47303;-75
2022/06/01 10:46:00;;;;;;;2.25;1.30;;;17.70;99.90;;;;;;5066267;28;47766;-75
2022/06/01 10:48:39;;;;;;;2.85;1.17;;;17.30;99.90;;;;;;5086575;27;47486;-76
2022/06/01 10:51:21;;;;;;;1.33;1.17;;;17.30;99.90;;;;;;5082534;27;38946;-76
2022/06/01 10:54:13;;;;;;;2.15;0.90;;;17.30;99.90;;;;;;5079701;27;38840;-76
2022/06/01 10:56:39;;;;;;;1.25;0.77;;;18.00;99.90;;;;;;5063186;28;47395;-75
2022/06/01 10:59:12;;;;;;;2.47;1.40;;;18.20;99.90;;;;;;5065276;28;37848;-75
2022/06/01 11:02:20;;;;;;;3.08;1.13;;;18.10;99.90;;;;;;5065363;27;38895;-76
2022/06/01 11:05:02;;;;;;;2.65;1.27;;;18.60;99.90;;;;;;5054007;28;48768;-76
2022/06/01 11:07:53;;;;;;;1.80;1.20;;;18.10;99.90;;;;;;5065189;27;48489;-75
2022/06/01 11:10:53;;;;;;;2.63;1.25;;;17.60;99.90;;;;;;5066068;28;38216;-75
2022/06/01 11:13:34;;;;;;;2.15;1.25;;;18.30;99.90;;;;;;5058931;28;37821;-76
2022/06/01 11:16:22;;;;;;;0.90;0.90;;;17.50;99.90;;;;;;5062939;28;39610;-76
2022/06/01 11:19:05;;;;;;;2.17;1.27;;;17.10;99.90;;;;;;5065696;27;50133;-75
2022/06/01 11:21:50;;;;;;;1.90;1.25;;;16.70;99.90;;;;;;5080219;28;48251;-76
2022/06/01 11:24:35;;;;;;;3.28;1.70;;;16.60;99.90;;;;;;5088980;27;39284;-75
2022/06/01 11:27:32;;;;;;;3.72;1.25;;;16.80;99.90;;;;;;5087446;27;38494;-77
2022/06/01 11:30:22;;;;;;;3.78;1.80;;;17.20;99.90;;;;;;5084478;28;38589;-76
2022/06/01 11:32:52;;;;;;;2.92;1.60;;;17.60;99.90;;;;;;5085314;28;48158;-76
2022/06/01 11:35:28;;;;;;;2.40;1.38;;;18.00;99.90;;;;;;5087814;28;40378;-76
2022/06/01 11:38:06;;;;;;;2.33;1.67;;;17.60;99.90;;;;;;5080535;28;38303;-75
2022/06/01 11:40:52;;;;;;;4.75;1.90;;;17.50;99.90;;;;;;5067615;28;49017;-77
2022/06/01 11:43:22;;;;;;;1.27;1.17;;;17.50;99.90;;;;;;5064397;28;38785;-76
2022/06/01 11:45:53;;;;;;;2.55;1.20;;;18.10;99.90;;;;;;5068577;27;38671;-76
2022/06/01 11:48:24;;;;;;;2.50;1.23;;;18.90;99.90;;;;;;5067781;27;40163;-76
2022/06/01 11:51:08;;;;;;;4.97;1.38;;;19.10;99.90;;;;;;5067245;28;37673;-72
2022/06/01 11:53:54;;;;;;;1.25;0.90;;;19.20;99.90;;;;;;5067777;27;49484;-74
2022/06/01 11:56:24;;;;;;;5.32;1.10;;;19.30;99.90;;;;;;5064887;27;40943;-75
2022/06/01 11:59:28;;;;;;;2.25;1.20;;;19.30;99.90;;;;;;5062853;27;39034;-74
2022/06/01 12:01:58;;;;;;;2.40;1.13;;;18.70;99.90;;;;;;5083663;27;47184;-77
2022/06/01 12:04:36;;;;;;;3.78;1.50;;;18.30;99.90;;;;;;5066259;27;38428;-76
2022/06/01 12:07:21;;;;;;;4.15;0.73;;;18.10;99.90;;;;;;5066354;28;39729;-77
2022/06/01 12:09:49;;;;;;;1.20;1.10;;;17.90;99.90;;;;;;5065979;28;39123;-76
2022/06/01 12:12:34;;;;;;;3.72;1.55;;;18.00;99.90;;;;;;5061491;27;37884;-76
2022/06/01 12:15:16;;;;;;;3.22;1.05;;;18.30;99.90;;;;;;5063572;28;37434;-76
2022/06/01 12:18:11;;;;;;;2.50;1.05;;;18.50;99.90;;;;;;5066967;27;48342;-76
2022/06/01 12:20:37;;;;;;;1.63;1.05;;;18.70;99.90;;;;;;5059447;28;48872;-75
2022/06/01 12:29:03;;;;;;;3.83;2.70;;;19.60;99.90;;;;;;5066324;27;49999;-74
2022/06/01 12:31:38;;;;;;;4.63;1.50;;;19.40;99.90;;;;;;5074055;28;47377;-75
2022/06/01 12:34:10;;;;;;;2.72;1.58;;;19.30;99.90;;;;;;5085344;27;38406;-75
2022/06/01 12:36:42;;;;;;;2.70;2.20;;;19.30;99.90;;;;;;5080958;28;38024;-74
2022/06/01 12:39:11;;;;;;;;;;;18.60;99.90;;;;;;5083476;28;39279;-75
2022/06/01 12:41:40;;;;;;;6.13;2.00;;;18.40;99.90;;;;;;5073030;28;39640;-75
2022/06/01 12:44:10;;;;;;;4.68;1.80;;;18.40;99.90;;;;;;5094009;28;36466;-74
2022/06/01 12:46:39;;;;;;;3.83;1.88;;;18.60;99.90;;;;;;5082602;28;36306;-74
2022/06/01 12:49:22;;;;;;;2.97;1.58;;;18.80;99.90;;;;;;5089688;27;38255;-74
2022/06/01 12:51:49;;;;;;;;;;;19.00;99.90;;;;;;5096109;27;38134;-75
2022/06/01 12:54:37;;;;;;;2.90;1.80;;;18.60;99.90;;;;;;5083153;27;37993;-75
2022/06/01 12:57:05;;;;;;;3.58;1.85;;;18.50;99.90;;;;;;5076130;27;36728;-76
2022/06/01 12:59:35;;;;;;;3.60;1.77;;;18.20;99.90;;;;;;5090078;27;40628;-75
2022/06/01 13:02:05;;;;;;;2.75;1.63;;;18.50;99.90;;;;;;5074579;27;38146;-75
2022/06/01 13:04:31;;;;;;;3.40;2.05;;;18.50;99.90;;;;;;5084460;27;38268;-75
2022/06/01 13:06:58;;;;;;;3.75;2.47;;;18.80;99.90;;;;;;5068636;28;38178;-75
2022/06/01 13:09:29;;;;;;;2.20;1.98;;;18.70;99.90;;;;;;5068298;27;39240;-74
2022/06/01 13:11:59;;;;;;;3.17;2.72;;;18.80;99.90;;;;;;5068911;28;37431;-74
2022/06/01 13:14:26;;;;;;;3.80;2.50;;;18.90;99.90;;;;;;5087448;27;36758;-74
2022/06/01 13:16:53;;;;;;;2.67;2.40;;;19.10;99.90;;;;;;5069879;27;38066;-74
2022/06/01 13:19:26;;;;;;;5.40;2.40;;;18.90;99.90;;;;;;5067455;27;40601;-75
2022/06/01 13:21:52;;;;;;;5.20;2.53;;;19.10;99.90;;;;;;5066355;27;39825;-75
2022/06/01 13:24:20;;;;;;;2.60;2.40;;;19.10;99.90;;;;;;5069149;27;38835;-75
2022/06/01 13:26:50;;;;;;;5.00;3.10;;;19.10;99.90;;;;;;5070609;27;38294;-76
2022/06/01 13:29:26;;;;;;;3.70;3.28;;;19.30;99.90;;;;;;5067532;28;38404;-75
2022/06/01 13:31:55;;;;;;;2.60;2.40;;;19.10;99.90;;;;;;5067563;28;38982;-74
2022/06/01 13:34:32;;;;;;;3.33;2.53;;;19.10;99.90;;;;;;5067642;28;39485;-74
2022/06/01 13:37:14;;;;;;;4.03;2.83;;;19.40;99.90;;;;;;5061447;28;38748;-75
2022/06/01 13:40:02;;;;;;;2.70;2.50;;;19.60;99.90;;;;;;5088007;28;47124;-74